createdAt,value
2018-08-27T00:00:10.128Z,1006.87
2018-08-27T00:01:10.203Z,1006.86
2018-08-27T00:02:10.085Z,1006.84
2018-08-27T00:03:10.112Z,1006.90
2018-08-27T00:04:10.037Z,1006.85
2018-08-27T00:05:10.127Z,1006.78
2018-08-27T00:06:09.994Z,1006.84
2018-08-27T00:07:10.040Z,1006.83
2018-08-27T00:08:09.949Z,1006.74
2018-08-27T00:09:09.950Z,1006.72
2018-08-27T00:10:09.900Z,1006.75
2018-08-27T00:11:09.963Z,1006.72
2018-08-27T00:12:09.872Z,1006.69
2018-08-27T00:13:09.877Z,1006.66
2018-08-27T00:14:09.819Z,1006.66
2018-08-27T00:15:09.890Z,1006.66
2018-08-27T00:16:09.770Z,1006.64
2018-08-27T00:17:09.803Z,1006.66
2018-08-27T00:18:09.730Z,1006.68
2018-08-27T00:19:09.817Z,1006.57
2018-08-27T00:20:09.680Z,1006.58
2018-08-27T00:21:09.728Z,1006.60
2018-08-27T00:22:09.632Z,1006.60
2018-08-27T00:23:09.646Z,1006.54
2018-08-27T00:24:09.590Z,1006.53
2018-08-27T00:25:09.653Z,1006.53
2018-08-27T00:26:09.556Z,1006.51
2018-08-27T00:27:09.568Z,1006.52
2018-08-27T00:28:09.506Z,1006.52
2018-08-27T00:29:09.580Z,1006.53
2018-08-27T00:30:09.455Z,1006.44
2018-08-27T00:31:09.493Z,1006.47
2018-08-27T00:32:09.412Z,1006.42
2018-08-27T00:33:09.404Z,1006.42
2018-08-27T00:34:09.360Z,1006.39
2018-08-27T00:35:09.417Z,1006.40
2018-08-27T00:36:09.325Z,1006.38
2018-08-27T00:37:09.329Z,1006.39
2018-08-27T00:38:09.267Z,1006.32
2018-08-27T00:39:09.343Z,1006.31
2018-08-27T00:40:09.232Z,1006.31
2018-08-27T00:41:09.256Z,1006.26
2018-08-27T00:42:09.192Z,1006.25
2018-08-27T00:43:09.276Z,1006.24
2018-08-27T00:44:09.138Z,1006.21
2018-08-27T00:45:09.182Z,1006.14
2018-08-27T00:46:09.089Z,1006.18
2018-08-27T00:47:09.099Z,1006.18
2018-08-27T00:48:09.041Z,1006.17
2018-08-27T00:49:09.109Z,1006.11
2018-08-27T00:50:09.004Z,1006.12
2018-08-27T00:51:09.020Z,1006.10
2018-08-27T00:52:08.953Z,1006.10
2018-08-27T00:53:09.034Z,1006.08
2018-08-27T00:54:08.908Z,1006.03
2018-08-27T00:55:08.944Z,1006.06
2018-08-27T00:56:08.864Z,1006.06
2018-08-27T00:57:08.859Z,1006.03
2018-08-27T00:58:08.814Z,1005.98
2018-08-27T00:59:08.874Z,1005.97
2018-08-27T01:00:08.774Z,1005.94
2018-08-27T01:01:08.784Z,1005.93
2018-08-27T01:02:08.723Z,1005.94
2018-08-27T01:03:08.801Z,1005.93
2018-08-27T01:04:08.680Z,1005.91
2018-08-27T01:05:08.708Z,1005.94
2018-08-27T01:06:08.638Z,1005.93
2018-08-27T01:07:08.725Z,1005.95
2018-08-27T01:08:08.587Z,1005.90
2018-08-27T01:09:08.637Z,1005.86
2018-08-27T01:10:08.555Z,1005.87
2018-08-27T01:11:08.547Z,1005.86
2018-08-27T01:12:08.498Z,1005.84
2018-08-27T01:13:08.564Z,1005.82
2018-08-27T01:14:08.450Z,1005.77
2018-08-27T01:15:08.475Z,1005.81
2018-08-27T01:16:08.404Z,1005.79
2018-08-27T01:17:08.487Z,1005.79
2018-08-27T01:18:08.362Z,1005.79
2018-08-27T01:19:08.399Z,1005.76
2018-08-27T01:20:08.317Z,1005.85
2018-08-27T01:21:08.310Z,1005.79
2018-08-27T01:22:08.272Z,1005.79
2018-08-27T01:23:08.329Z,1005.82
2018-08-27T01:24:08.222Z,1005.80
2018-08-27T01:25:08.238Z,1005.78
2018-08-27T01:26:08.184Z,1005.76
2018-08-27T01:27:08.256Z,1005.75
2018-08-27T01:28:08.131Z,1005.81
2018-08-27T01:29:08.171Z,1005.77
2018-08-27T01:30:08.085Z,1005.81
2018-08-27T01:31:08.078Z,1005.75
2018-08-27T01:32:08.043Z,1005.79
2018-08-27T01:33:08.095Z,1005.83
2018-08-27T01:34:07.996Z,1005.78
2018-08-27T01:35:08.027Z,1005.80
2018-08-27T01:36:07.949Z,1005.80
2018-08-27T01:37:08.024Z,1005.77
2018-08-27T01:38:07.904Z,1005.85
2018-08-27T01:39:07.928Z,1005.81
2018-08-27T01:40:07.863Z,1005.82
2018-08-27T01:41:07.948Z,1005.72
2018-08-27T01:42:07.812Z,1005.79
2018-08-27T01:43:07.857Z,1005.76
2018-08-27T01:44:14.294Z,1005.77
2018-08-27T01:45:07.769Z,1005.79
2018-08-27T01:46:07.720Z,1005.68
2018-08-27T01:47:07.783Z,1005.74
2018-08-27T01:48:07.674Z,1005.74
2018-08-27T01:49:07.698Z,1005.69
2018-08-27T01:50:07.633Z,1005.68
2018-08-27T01:51:07.712Z,1005.66
2018-08-27T01:52:07.583Z,1005.69
2018-08-27T01:53:07.623Z,1005.65
2018-08-27T01:54:07.535Z,1005.62
2018-08-27T01:55:07.537Z,1005.63
2018-08-27T01:56:07.491Z,1005.57
2018-08-27T01:57:07.545Z,1005.60
2018-08-27T01:58:07.445Z,1005.56
2018-08-27T01:59:07.456Z,1005.52
2018-08-27T02:00:07.399Z,1005.53
2018-08-27T02:01:07.473Z,1005.52
2018-08-27T02:02:07.354Z,1005.50
2018-08-27T02:03:07.381Z,1005.55
2018-08-27T02:04:07.305Z,1005.53
2018-08-27T02:05:07.398Z,1005.53
2018-08-27T02:06:07.263Z,1005.51
2018-08-27T02:07:07.307Z,1005.51
2018-08-27T02:08:07.217Z,1005.47
2018-08-27T02:09:07.221Z,1005.47
2018-08-27T02:10:07.169Z,1005.47
2018-08-27T02:11:07.236Z,1005.45
2018-08-27T02:12:07.123Z,1005.41
2018-08-27T02:13:07.155Z,1005.38
2018-08-27T02:14:07.079Z,1005.43
2018-08-27T02:15:07.161Z,1005.38
2018-08-27T02:16:07.030Z,1005.44
2018-08-27T02:17:07.071Z,1005.39
2018-08-27T02:18:06.985Z,1005.36
2018-08-27T02:19:06.984Z,1005.39
2018-08-27T02:20:06.943Z,1005.36
2018-08-27T02:21:07.000Z,1005.33
2018-08-27T02:22:06.902Z,1005.29
2018-08-27T02:23:06.910Z,1005.31
2018-08-27T02:24:06.846Z,1005.28
2018-08-27T02:25:06.925Z,1005.34
2018-08-27T02:26:06.801Z,1005.25
2018-08-27T02:27:06.836Z,1005.28
2018-08-27T02:28:06.762Z,1005.27
2018-08-27T02:29:06.747Z,1005.28
2018-08-27T02:30:06.709Z,1005.28
2018-08-27T02:31:06.760Z,1005.30
2018-08-27T02:32:06.664Z,1005.23
2018-08-27T02:33:06.671Z,1005.28
2018-08-27T02:34:06.616Z,1005.32
2018-08-27T02:35:06.744Z,1005.27
2018-08-27T02:36:06.572Z,1005.28
2018-08-27T02:37:06.597Z,1005.33
2018-08-27T02:38:06.525Z,1005.37
2018-08-27T02:39:06.612Z,1005.30
2018-08-27T02:40:06.478Z,1005.33
2018-08-27T02:41:06.523Z,1005.35
2018-08-27T02:42:06.440Z,1005.38
2018-08-27T02:43:06.434Z,1005.37
2018-08-27T02:44:06.390Z,1005.32
2018-08-27T02:45:06.449Z,1005.27
2018-08-27T02:46:06.342Z,1005.29
2018-08-27T02:47:06.360Z,1005.23
2018-08-27T02:48:06.294Z,1005.26
2018-08-27T02:49:06.376Z,1005.23
2018-08-27T02:50:06.250Z,1005.19
2018-08-27T02:51:06.289Z,1005.20
2018-08-27T02:52:06.201Z,1005.19
2018-08-27T02:53:06.200Z,1005.20
2018-08-27T02:54:06.157Z,1005.16
2018-08-27T02:55:06.213Z,1005.16
2018-08-27T02:56:06.109Z,1005.18
2018-08-27T02:57:06.126Z,1005.20
2018-08-27T02:58:06.063Z,1005.13
2018-08-27T02:59:06.147Z,1005.18
2018-08-27T03:00:06.017Z,1005.17
2018-08-27T03:01:06.051Z,1005.18
2018-08-27T03:02:05.972Z,1005.15
2018-08-27T03:03:05.963Z,1005.20
2018-08-27T03:04:05.927Z,1005.17
2018-08-27T03:05:05.981Z,1005.18
2018-08-27T03:06:05.876Z,1005.15
2018-08-27T03:07:05.889Z,1005.17
2018-08-27T03:08:05.831Z,1005.16
2018-08-27T03:09:05.903Z,1005.17
2018-08-27T03:10:05.787Z,1005.14
2018-08-27T03:11:05.815Z,1005.15
2018-08-27T03:12:05.741Z,1005.15
2018-08-27T03:13:05.829Z,1005.15
2018-08-27T03:14:05.695Z,1005.11
2018-08-27T03:15:05.746Z,1005.10
2018-08-27T03:16:05.644Z,1005.04
2018-08-27T03:17:05.652Z,1005.02
2018-08-27T03:18:05.607Z,1004.99
2018-08-27T03:19:05.666Z,1004.99
2018-08-27T03:20:05.561Z,1004.97
2018-08-27T03:21:05.578Z,1004.94
2018-08-27T03:22:05.509Z,1004.99
2018-08-27T03:23:05.593Z,1004.92
2018-08-27T03:24:05.464Z,1004.96
2018-08-27T03:25:05.613Z,1004.95
2018-08-27T03:26:05.411Z,1005.01
2018-08-27T03:27:05.416Z,1004.95
2018-08-27T03:28:05.372Z,1004.96
2018-08-27T03:29:05.429Z,1004.96
2018-08-27T03:30:05.325Z,1004.94
2018-08-27T03:31:05.341Z,1004.92
2018-08-27T03:32:05.282Z,1004.94
2018-08-27T03:33:05.356Z,1004.97
2018-08-27T03:34:05.232Z,1004.92
2018-08-27T03:35:05.269Z,1004.94
2018-08-27T03:36:05.185Z,1004.86
2018-08-27T03:37:05.179Z,1004.88
2018-08-27T03:38:05.138Z,1004.81
2018-08-27T03:39:05.193Z,1004.82
2018-08-27T03:40:05.089Z,1004.77
2018-08-27T03:41:05.105Z,1004.82
2018-08-27T03:42:05.048Z,1004.84
2018-08-27T03:43:05.121Z,1004.80
2018-08-27T03:44:04.999Z,1004.80
2018-08-27T03:45:05.030Z,1004.83
2018-08-27T03:46:04.951Z,1004.83
2018-08-27T03:47:04.941Z,1004.81
2018-08-27T03:48:04.906Z,1004.88
2018-08-27T03:49:04.963Z,1004.83
2018-08-27T03:50:04.858Z,1004.87
2018-08-27T03:51:04.871Z,1004.83
2018-08-27T03:52:04.813Z,1004.86
2018-08-27T03:53:04.887Z,1004.85
2018-08-27T03:54:04.771Z,1004.85
2018-08-27T03:55:04.797Z,1004.88
2018-08-27T03:56:04.719Z,1004.89
2018-08-27T03:57:04.811Z,1004.81
2018-08-27T03:58:04.678Z,1004.87
2018-08-27T03:59:04.723Z,1004.82
2018-08-27T04:00:04.630Z,1004.86
2018-08-27T04:01:04.635Z,1004.85
2018-08-27T04:02:04.583Z,1004.95
2018-08-27T04:03:04.648Z,1004.94
2018-08-27T04:04:04.533Z,1004.92
2018-08-27T04:05:04.570Z,1004.95
2018-08-27T04:06:04.491Z,1004.94
2018-08-27T04:07:04.576Z,1004.96
2018-08-27T04:08:04.441Z,1004.95
2018-08-27T04:09:04.482Z,1004.93
2018-08-27T04:10:04.397Z,1004.90
2018-08-27T04:11:04.398Z,1004.99
2018-08-27T04:12:04.352Z,1004.99
2018-08-27T04:13:04.413Z,1004.92
2018-08-27T04:14:04.303Z,1005.03
2018-08-27T04:15:04.323Z,1005.00
2018-08-27T04:16:04.257Z,1005.00
2018-08-27T04:17:04.338Z,1005.05
2018-08-27T04:18:04.210Z,1005.05
2018-08-27T04:19:04.249Z,1005.06
2018-08-27T04:20:04.162Z,1005.08
2018-08-27T04:21:04.161Z,1005.01
2018-08-27T04:22:04.116Z,1005.08
2018-08-27T04:23:04.175Z,1005.05
2018-08-27T04:24:04.069Z,1005.07
2018-08-27T04:25:04.087Z,1005.02
2018-08-27T04:26:04.023Z,1005.03
2018-08-27T04:27:04.104Z,1005.01
2018-08-27T04:28:03.983Z,1005.02
2018-08-27T04:29:04.014Z,1005.05
2018-08-27T04:30:03.933Z,1005.03
2018-08-27T04:31:03.926Z,1005.04
2018-08-27T04:32:03.884Z,1004.98
2018-08-27T04:33:03.938Z,1005.00
2018-08-27T04:34:03.846Z,1005.07
2018-08-27T04:35:03.861Z,1004.97
2018-08-27T04:36:03.800Z,1004.99
2018-08-27T04:37:03.865Z,1005.08
2018-08-27T04:38:03.744Z,1005.03
2018-08-27T04:39:03.782Z,1005.08
2018-08-27T04:40:03.708Z,1005.09
2018-08-27T04:41:03.791Z,1005.07
2018-08-27T04:42:03.656Z,1005.01
2018-08-27T04:43:03.713Z,1005.07
2018-08-27T04:44:03.613Z,1005.09
2018-08-27T04:45:03.615Z,1005.10
2018-08-27T04:46:03.560Z,1005.05
2018-08-27T04:47:03.633Z,1005.03
2018-08-27T04:48:03.515Z,1005.02
2018-08-27T04:49:03.542Z,1005.02
2018-08-27T04:50:03.467Z,1005.07
2018-08-27T04:51:03.554Z,1005.12
2018-08-27T04:52:03.424Z,1005.06
2018-08-27T04:53:03.469Z,1005.12
2018-08-27T04:54:03.381Z,1005.08
2018-08-27T04:55:03.378Z,1005.08
2018-08-27T04:56:03.331Z,1005.08
2018-08-27T04:57:03.395Z,1005.13
2018-08-27T04:58:03.282Z,1005.12
2018-08-27T04:59:03.305Z,1005.16
2018-08-27T05:00:03.236Z,1005.17
2018-08-27T05:01:03.326Z,1005.18
2018-08-27T05:02:03.192Z,1005.16
2018-08-27T05:03:03.231Z,1005.22
2018-08-27T05:04:03.144Z,1005.19
2018-08-27T05:05:03.144Z,1005.25
2018-08-27T05:06:03.099Z,1005.22
2018-08-27T05:07:03.157Z,1005.21
2018-08-27T05:08:03.053Z,1005.24
2018-08-27T05:09:03.069Z,1005.29
2018-08-27T05:10:03.007Z,1005.23
2018-08-27T05:11:03.086Z,1005.27
2018-08-27T05:12:02.955Z,1005.26
2018-08-27T05:13:02.998Z,1005.30
2018-08-27T05:14:02.918Z,1005.28
2018-08-27T05:15:02.908Z,1005.28
2018-08-27T05:16:02.868Z,1005.28
2018-08-27T05:17:02.921Z,1005.32
2018-08-27T05:18:02.825Z,1005.33
2018-08-27T05:19:02.849Z,1005.36
2018-08-27T05:20:02.774Z,1005.33
2018-08-27T05:21:02.847Z,1005.37
2018-08-27T05:22:02.730Z,1005.38
2018-08-27T05:23:02.759Z,1005.41
2018-08-27T05:24:02.682Z,1005.37
2018-08-27T05:25:02.773Z,1005.39
2018-08-27T05:26:02.640Z,1005.40
2018-08-27T05:27:02.684Z,1005.36
2018-08-27T05:28:02.595Z,1005.41
2018-08-27T05:29:02.599Z,1005.41
2018-08-27T05:30:02.553Z,1005.40
2018-08-27T05:31:02.654Z,1005.46
2018-08-27T05:32:02.499Z,1005.45
2018-08-27T05:33:02.522Z,1005.50
2018-08-27T05:34:02.455Z,1005.54
2018-08-27T05:35:02.537Z,1005.44
2018-08-27T05:36:02.410Z,1005.49
2018-08-27T05:37:02.458Z,1005.51
2018-08-27T05:38:02.392Z,1005.53
2018-08-27T05:39:02.362Z,1005.58
2018-08-27T05:40:02.317Z,1005.62
2018-08-27T05:41:02.377Z,1005.74
2018-08-27T05:42:02.269Z,1005.60
2018-08-27T05:43:02.286Z,1005.64
2018-08-27T05:44:02.223Z,1005.59
2018-08-27T05:45:02.301Z,1005.65
2018-08-27T05:46:02.176Z,1005.73
2018-08-27T05:47:02.214Z,1005.72
2018-08-27T05:48:02.133Z,1005.70
2018-08-27T05:49:02.125Z,1005.69
2018-08-27T05:50:02.090Z,1005.70
2018-08-27T05:51:02.138Z,1005.71
2018-08-27T05:52:02.103Z,1005.70
2018-08-27T05:53:02.049Z,1005.72
2018-08-27T05:54:01.999Z,1005.74
2018-08-27T05:55:02.064Z,1005.75
2018-08-27T05:56:01.949Z,1005.76
2018-08-27T05:57:01.978Z,1005.78
2018-08-27T05:58:01.904Z,1005.81
2018-08-27T05:59:01.992Z,1005.82
2018-08-27T06:00:01.856Z,1005.80
2018-08-27T06:01:01.902Z,1005.84
2018-08-27T06:02:01.970Z,1005.87
2018-08-27T06:03:01.814Z,1005.82
2018-08-27T06:04:01.769Z,1005.85
2018-08-27T06:05:01.827Z,1005.91
2018-08-27T06:06:01.722Z,1005.88
2018-08-27T06:07:01.771Z,1005.96
2018-08-27T06:08:01.674Z,1005.92
2018-08-27T06:09:01.825Z,1005.95
2018-08-27T06:10:01.629Z,1005.96
2018-08-27T06:11:01.720Z,1006.02
2018-08-27T06:12:01.586Z,1005.98
2018-08-27T06:13:01.577Z,1005.96
2018-08-27T06:14:01.540Z,1006.00
2018-08-27T06:15:01.596Z,1006.03
2018-08-27T06:16:01.494Z,1005.97
2018-08-27T06:17:01.539Z,1005.97
2018-08-27T06:18:01.450Z,1005.94
2018-08-27T06:19:01.518Z,1005.95
2018-08-27T06:20:01.401Z,1005.95
2018-08-27T06:21:01.441Z,1005.98
2018-08-27T06:22:01.376Z,1005.96
2018-08-27T06:23:01.452Z,1005.95
2018-08-27T06:24:01.313Z,1005.93
2018-08-27T06:25:01.426Z,1005.90
2018-08-27T06:26:01.266Z,1005.93
2018-08-27T06:27:01.274Z,1005.89
2018-08-27T06:28:01.225Z,1005.95
2018-08-27T06:29:01.287Z,1005.95
2018-08-27T06:30:01.207Z,1005.96
2018-08-27T06:31:01.202Z,1005.94
2018-08-27T06:32:01.132Z,1005.99
2018-08-27T06:33:01.213Z,1006.04
2018-08-27T06:34:01.085Z,1006.04
2018-08-27T06:35:01.166Z,1006.08
2018-08-27T06:36:01.042Z,1006.06
2018-08-27T06:37:01.034Z,1006.13
2018-08-27T06:38:01.050Z,1006.05
2018-08-27T06:39:01.051Z,1006.06
2018-08-27T06:40:00.952Z,1006.07
2018-08-27T06:41:00.960Z,1006.10
2018-08-27T06:42:00.910Z,1006.14
2018-08-27T06:43:00.978Z,1006.14
2018-08-27T06:44:00.858Z,1006.15
2018-08-27T06:45:00.890Z,1006.10
2018-08-27T06:46:00.812Z,1006.12
2018-08-27T06:47:00.903Z,1006.07
2018-08-27T06:48:00.768Z,1006.12
2018-08-27T06:49:01.838Z,1006.09
2018-08-27T06:50:00.724Z,1006.10
2018-08-27T06:51:00.727Z,1006.04
2018-08-27T06:52:00.673Z,1006.09
2018-08-27T06:53:00.740Z,1006.07
2018-08-27T06:54:00.635Z,1006.07
2018-08-27T06:55:00.650Z,1006.05
2018-08-27T06:56:00.589Z,1006.02
2018-08-27T06:57:00.677Z,1006.04
2018-08-27T06:58:00.541Z,1006.05
2018-08-27T06:59:00.573Z,1006.04
2018-08-27T07:00:00.496Z,1006.04
2018-08-27T07:01:00.589Z,1006.06
2018-08-27T07:02:00.448Z,1006.13
2018-08-27T07:03:00.500Z,1006.11
2018-08-27T07:04:00.407Z,1006.07
2018-08-27T07:05:00.413Z,1006.17
2018-08-27T07:06:00.364Z,1006.13
2018-08-27T07:07:00.429Z,1006.12
2018-08-27T07:08:00.315Z,1006.13
2018-08-27T07:09:00.359Z,1006.13
2018-08-27T07:10:00.270Z,1006.11
